RKSS/GMP METAR and TAF weather

Enter ICAO airport designator
Station Type Date Time Source
RKSS METAR 2020/01/29 03:00 UTC NOAA

RKSS 290300Z 36004KT 320V060 CAVOK 08/M00 Q1016 NOSIG


Station Type Date Time Source
RKSS Decoded METAR 2020/01/29 03:00 UTC NOAA

Seoul / Kimp'O International Airport, Korea, South (RKSS) 37-33N 126-48E 18M
Jan 28, 2020 - 10:00 PM EST / 2020.01.29 0300 UTC
Wind: from the N (360 degrees) at 5 MPH (4 KT) (direction variable):0
Visibility: greater than 7 mile(s):0
Temperature: 46 F (8 C)
Dew Point: 32 F (0 C)
Relative Humidity: 56%
Pressure (altimeter): 30.00 in. Hg (1016 hPa)
ob: RKSS 290300Z 36004KT 320V060 CAVOK 08/M00 Q1016 NOSIG
cycle: 3

Station Type Date Time Source
RKSS TAF 2020/01/28 18:47 UTC NOAA

TAF RKSS 281700Z 2818/2924 01007KT CAVOK TN01/2822Z TX08/2905Z TNM02/2922Z
BECMG 2912/2913 07006KT 6000 SCT030 BKN120

Example: see airport list